Latest Coastal Weather Observations for Sydney Airport

IDN60701

Issued at 6:05 pm EDT Friday 24 October 2014 (issued every 10 minutes, with the page automatically refreshed every 10 minutes)

About coastal observations | Map of coastal stations | Coastal observations for NSW | Marine services | Other Formats
Station Details ID: 066037 Name: SYDNEY AIRPORT AMO Lat: -33.95 Lon: 151.17 Height: 6.0 m
Data from the previous 72 hours. | See also: Recent months at Sydney Airport
Date/Time
EDT
Temp

°C
Wind Pressure Rain
since 9am
mm
Weather Cloud Vis
km
Sea
Height
m
Swell
Dir
 
Speed
knots
Gust
knots
hPa Trend Height
m
Period
s
Dir
24/06:00pm 23.3 NNE 19 26 1012.2 - 0.2 - Mostly clear 10 - - - -
24/05:30pm 24.1 NE 19 26 1012.3 - 0.2 - Mostly clear 10 - - - -
24/05:00pm 24.4 NE 22 31 1012.6 - 0.2 - Mostly clear 10 - - - -
24/04:30pm 23.9 NE 22 27 1012.8 - 0.2 - Mostly clear 10 - - - -
24/04:00pm 24.4 NNE 22 28 1013.3 - 0.2 - Mostly clear 10 - - - -
24/03:30pm 25.8 NNE 19 23 1013.8 - 0.2 - Mostly clear 10 - - - -
24/03:00pm 25.9 NE 19 22 1014.3 F 0.2 Haze Partly cloudy 20 - - - -
24/02:30pm 25.1 NE 18 20 1014.9 - 0.2 - Mostly clear 10 - - - -
24/02:00pm 26.3 NE 19 22 1015.4 - 0.2 - Mostly clear 10 - - - -
24/01:30pm 25.9 ENE 17 21 1016.2 - 0.2 - Mostly clear 10 - - - -
24/01:00pm 26.4 E 16 19 1016.6 - 0.2 - Mostly clear 10 - - - -
24/12:30pm 28.0 NE 10 13 1017.1 - 0.2 - Mostly clear 10 - - - -
24/12:00pm 26.4 N 10 14 1017.7 F 0.2 Haze Partly cloudy 20 - - - -
24/11:30am 24.8 N 10 12 1018.3 - 0.0 - Mostly clear 10 - - - -
24/11:00am 23.0 N 10 12 1019.1 - 0.0 - Mostly clear 10 - - - -
24/10:30am 22.0 WNW 4 6 1020.4 - 0.0 Showers Mostly clear 10 - - - -
24/10:00am 23.6 N 9 11 1019.9 - 0.0 - Partly cloudy 10 - - - -
24/09:30am 23.0 N 10 14 1019.7 - 0.0 - Mostly clear 10 - - - -
24/09:00am 21.2 NNW 11 15 1019.9 F 0.0 Haze Mostly cloudy 15 - - - -
24/08:30am 21.5 NNW 9 12 1019.7 - 0.0 - Partly cloudy 10 - - - -
24/08:00am 21.3 N 7 9 1019.9 - 0.0 - Partly cloudy 10 - - - -
24/07:30am 20.3 NNE 6 8 1019.4 - 0.0 - Mostly clear 10 - - - -
24/07:20am 19.3 ENE 16 19 1018.2 - 0.0 - Mostly clear 10 - - - -
24/07:00am 18.9 SE 8 10 1020.2 - 0.0 - Mostly clear 10 - - - -
24/06:30am 18.7 SE 7 9 1020.1 - 0.0 - Mostly clear 10 - - - -
24/06:00am 18.5 SSE 5 7 1020.1 R 0.0 Rain Mostly cloudy 20 - - - -
24/05:30am 18.6 W 6 7 1019.8 - 0.0 Rain Mostly clear 10 - - - -
24/05:00am 18.5 WNW 3 6 1020.1 - 0.0 - Mostly clear 10 - - - -
24/04:30am 18.9 N 6 8 1019.2 - 0.0 - Partly cloudy 10 - - - -
24/04:20am 19.0 NW 5 6 1019.8 - 0.0 - Mostly clear 10 - - - -
24/04:00am 18.7 W 15 18 1020.2 - 0.0 - Partly cloudy 10 - - - -
24/03:30am 19.1 WNW 5 8 1019.7 - 0.0 - Mostly cloudy 10 - - - -
24/03:00am 19.1 NE 6 7 1018.7 F 0.0 Haze Mostly cloudy 15 - - - -
24/02:30am 18.9 E 7 8 1018.9 - 0.0 - Mostly clear 10 - - - -
24/02:00am 19.2 S 11 15 1020.1 - 0.0 - Mostly clear 10 - - - -
24/01:30am 19.3 S 13 15 1020.7 - 0.0 - Partly cloudy 10 - - - -
24/01:00am 19.1 SSE 9 11 1020.7 - 0.0 - Mostly clear 10 - - - -
24/12:30am 19.1 S 9 10 1020.7 - 0.0 - Mostly clear 10 - - - -
24/12:14am 19.2 S 8 10 1020.9 - 0.0 - Mostly clear 10 - - - -
 
Date/Time
EDT
Temp

°C
Wind Pressure Rain
since 9am
mm
Weather Cloud Vis
km
Sea
Height
m
Swell
Dir
 
Speed
knots
Gust
knots
hPa Trend Height
m
Period
s
Dir
23/11:30pm 19.2 SSE 5 6 1020.3 - 0.0 - Mostly clear 10 - - - -
23/11:00pm 19.3 S 5 6 1020.5 - 0.0 - Mostly clear 10 - - - -
23/10:30pm 19.7 S 6 7 1020.6 - 0.0 - Partly cloudy 10 - - - -
23/10:00pm 19.7 SSE 7 8 1020.0 - 0.0 - Mostly clear 10 - - - -
23/09:30pm 19.6 SE 7 9 1019.9 - 0.0 - Mostly clear 10 - - - -
23/09:16pm 19.7 SSE 8 9 1019.7 - 0.0 - - 6 - - - -
23/09:00pm 19.6 SSE 8 9 1019.7 R 0.0 Haze Mostly cloudy 20 - - - -
23/08:30pm 20.0 S 7 8 1019.4 - 0.0 - Mostly clear 10 - - - -
23/08:00pm 20.0 SSE 7 7 1018.9 - 0.0 - Mostly clear 10 - - - -
23/07:30pm 20.4 SE 6 7 1018.5 - 0.0 - Mostly clear 10 - - - -
23/07:00pm 20.8 ESE 7 8 1018.2 - 0.0 - - 10 - - - -
23/06:30pm 21.4 ESE 6 7 1017.7 - 0.0 - - 10 - - - -
23/06:00pm 21.8 E 7 9 1017.6 R 0.0 Distant precip. Mostly cloudy 30 - - - -
23/05:30pm 23.3 ESE 9 14 1017.0 - 0.0 - Mostly clear 10 - - - -
23/05:00pm 23.2 ESE 9 13 1016.7 - 0.0 - Mostly clear 10 - - - -
23/04:30pm 23.8 E 10 14 1016.6 - 0.0 - Mostly clear 10 - - - -
23/04:00pm 24.7 SE 11 15 1016.1 - 0.0 - Mostly clear 10 - - - -
23/03:30pm 25.5 SE 9 13 1015.9 - 0.0 - Mostly clear 10 - - - -
23/03:00pm 25.1 SE 11 14 1015.9 R 0.0 Lightning Mostly clear 30 - - - -
23/02:30pm 25.8 SE 13 15 1015.9 - 0.0 - - 10 - - - -
23/02:00pm 27.1 ESE 10 13 1016.4 - 0.0 - - 10 - - - -
23/01:30pm 26.2 SSE 8 9 1016.7 - 0.0 - Mostly clear 10 - - - -
23/01:00pm 26.9 SSE 8 10 1016.6 - 0.0 - - 10 - - - -
23/12:30pm 26.9 SSE 5 7 1016.8 - 0.0 - - 10 - - - -
23/12:00pm 26.3 SE 5 7 1017.0 F 0.0 Haze Mostly clear 25 - - - -
23/11:30am 26.2 SE 5 9 1017.1 - 0.0 - Mostly clear 10 - - - -
23/11:00am 25.9 NW 6 8 1017.4 - 0.0 - - 10 - - - -
23/10:30am 25.2 N 7 9 1017.7 - 0.0 - - 10 - - - -
23/10:00am 23.2 NW 7 10 1018.0 - 0.0 - - 10 - - - -
23/09:30am 21.9 NW 7 8 1018.0 - 0.0 - - 10 - - - -
23/09:00am 22.0 NW 6 8 1017.9 F 0.0 Haze Partly cloudy 20 - - - -
23/08:30am 19.1 NNW 5 7 1018.0 - 0.0 - - 10 - - - -
23/08:00am 18.6 NNW 7 8 1018.2 - 0.0 - - 10 - - - -
23/07:30am 17.4 NW 7 10 1018.3 - 0.0 - - 10 - - - -
23/07:00am 16.8 NW 5 6 1017.9 - 0.0 - - 10 - - - -
23/06:30am 16.3 NW 6 7 1017.9 - 0.0 - - 10 - - - -
23/06:00am 16.0 N 6 7 1017.5 F 0.0 Fine Partly cloudy 30 - - - -
23/05:30am 15.8 NNW 7 8 1017.6 - 0.0 - - 10 - - - -
23/05:00am 16.0 N 7 7 1017.4 - 0.0 - - 10 - - - -
23/04:30am 16.0 NNW 6 7 1017.6 - 0.0 - - 10 - - - -
23/04:00am 15.8 N 6 6 1017.4 - 0.0 - - 10 - - - -
23/03:30am 16.4 NW 5 6 1017.8 - 0.0 - - 10 - - - -
23/03:00am 15.8 NNW 3 4 1017.9 F 0.0 Fine Clear 30 - - - -
23/02:30am 16.3 NW 4 4 1018.2 - 0.0 - - 10 - - - -
23/02:00am 16.3 NW 4 4 1018.6 - 0.0 - - 10 - - - -
23/01:30am 16.8 NW 3 4 1018.9 - 0.0 - - 10 - - - -
23/01:00am 17.2 N 5 6 1019.3 - 0.0 - - 10 - - - -
23/12:30am 17.6 N 7 7 1019.6 - 0.0 - - 10 - - - -
23/12:00am 18.4 NNE 6 7 1020.0 F 0.0 Fine Clear 30 - - - -
 
Date/Time
EDT
Temp

°C
Wind Pressure Rain
since 9am
mm
Weather Cloud Vis
km
Sea
Height
m
Swell
Dir
 
Speed
knots
Gust
knots
hPa Trend Height
m
Period
s
Dir
22/11:30pm 18.7 NNE 7 9 1020.1 - 0.0 - - 10 - - - -
22/11:00pm 19.3 N 11 14 1020.3 - 0.0 - - 10 - - - -
22/10:30pm 19.5 N 13 18 1020.3 - 0.0 - - 10 - - - -
22/10:00pm 19.3 NNE 15 19 1020.2 - 0.0 - - 10 - - - -
22/09:30pm 19.6 NNE 15 19 1020.1 - 0.0 - - 10 - - - -
22/09:00pm 19.6 NNE 15 19 1020.1 F 0.0 Fine Partly cloudy 30 - - - -
22/08:30pm 19.8 NNE 15 21 1019.9 - 0.0 - - 10 - - - -
22/08:00pm 19.9 NNE 18 21 1019.9 - 0.0 - - 10 - - - -
22/07:30pm 19.9 NE 17 21 1019.8 - 0.0 - - 10 - - - -
22/07:00pm 20.3 NE 19 27 1019.8 - 0.0 - - 10 - - - -
22/06:30pm 20.3 NE 20 26 1019.9 - 0.0 - - 10 - - - -
22/06:00pm 21.3 NNE 22 27 1020.0 F 0.0 Fine Mostly clear 30 - - - -
22/05:30pm 21.5 NNE 20 25 1020.0 - 0.0 - - 10 - - - -
22/05:00pm 21.6 NNE 21 25 1020.1 - 0.0 - - 10 - - - -
22/04:30pm 21.8 NE 18 22 1020.3 - 0.0 - - 10 - - - -
22/04:00pm 22.3 NE 17 22 1020.7 - 0.0 - - 10 - - - -
22/03:30pm 22.2 NE 19 22 1021.2 - 0.0 - - 10 - - - -
22/03:00pm 21.1 NE 19 26 1021.7 F 0.0 Fine Mostly clear 30 - - - -
22/02:30pm 21.1 NE 17 21 1022.3 - 0.0 - Mostly clear 10 - - - -
22/02:00pm 22.0 NE 17 21 1022.9 - 0.0 - Mostly clear 10 - - - -
22/01:30pm 21.8 NE 15 20 1023.5 - 0.0 - Mostly clear 10 - - - -
22/01:00pm 21.4 NE 16 20 1024.0 - 0.0 - Partly cloudy 10 - - - -
22/12:30pm 21.8 NNE 17 20 1024.6 - 0.0 - Partly cloudy 10 - - - -
22/12:00pm 21.7 NNE 16 20 1025.3 F 0.0 Fine Mostly cloudy 30 - - - -
22/11:30am 20.3 NNE 15 19 1025.8 - 0.0 - Partly cloudy 10 - - - -
22/11:00am 19.5 NE 16 19 1026.2 - 0.0 - Partly cloudy 10 - - - -
22/10:30am 20.7 NNE 12 18 1026.6 - 0.0 - Mostly clear 10 - - - -
22/10:00am 20.3 NNE 12 16 1026.7 - 0.0 - Mostly clear 10 - - - -
22/09:30am 19.7 NNE 11 14 1026.9 - 0.0 - Mostly clear 10 - - - -
22/09:00am 19.7 NW 7 9 1027.1 F 0.0 Fine Mostly cloudy 30 - - - -
22/08:30am 18.6 NNW 6 8 1027.2 - 0.0 - Mostly clear 10 - - - -
22/08:00am 18.3 NW 5 7 1027.4 - 0.0 - Mostly clear 10 - - - -
22/07:30am 16.1 WNW 6 8 1027.4 - 0.0 - Mostly clear 10 - - - -
22/07:00am 16.0 NW 7 9 1027.4 - 0.0 - Mostly clear 10 - - - -
22/06:30am 15.9 NW 6 10 1027.4 - 0.0 - Mostly clear 10 - - - -
22/06:00am 16.0 NW 6 7 1027.3 F 0.0 Fine Mostly cloudy 30 - - - -
22/05:30am 16.2 NW 5 6 1027.1 - 0.0 - Mostly cloudy 10 - - - -
22/05:00am 16.0 NW 5 6 1027.2 - 0.0 - Mostly cloudy 10 - - - -
22/04:30am 15.9 N 5 6 1027.4 - 0.0 - Mostly cloudy 10 - - - -
22/04:00am 15.3 NNW 4 5 1027.6 - 0.0 - Mostly cloudy 10 - - - -
22/03:30am 15.3 WNW 7 8 1028.0 - 0.0 - Mostly cloudy 10 - - - -
22/03:00am 15.6 N 5 6 1028.4 F 0.0 Fine Mostly cloudy 30 - - - -
22/02:30am 15.0 NNE 5 5 1028.8 - 0.0 - Mostly clear 10 - - - -
22/02:00am 14.9 ENE 6 6 1029.1 - 0.0 - Mostly cloudy 10 - - - -
22/01:30am 14.5 CALM 0 0 1029.5 - 0.0 - Mostly cloudy 10 - - - -
22/01:00am 15.0 N 3 3 1030.1 - 0.0 - Partly cloudy 10 - - - -
22/12:30am 16.0 NE 6 9 1030.7 - 0.0 - Mostly cloudy 10 - - - -
22/12:00am 16.1 NNE 12 15 1031.1 F 0.0 Distant precip. Mostly cloudy 25 - - - -
 
Date/Time
EDT
Temp

°C
Wind Pressure Rain
since 9am
mm
Weather Cloud Vis
km
Sea
Height
m
Swell
Dir
 
Speed
knots
Gust
knots
hPa Trend Height
m
Period
s
Dir
21/11:30pm 16.4 NE 6 14 1031.0 - 0.0 - Mostly clear 10 - - - -
21/11:00pm 16.1 ENE 7 9 1031.2 - 0.0 - Mostly clear 10 - - - -
21/10:30pm 17.0 NE 8 10 1031.2 - 0.0 - Partly cloudy 10 - - - -
21/10:00pm 16.4 NE 9 10 1031.4 - 0.0 - Mostly clear 10 - - - -
21/09:30pm 17.0 ENE 9 12 1031.3 - 0.0 - Mostly clear 10 - - - -
21/09:00pm 16.7 ENE 9 12 1031.2 F 0.0 Fine Mostly cloudy 30 - - - -
21/08:30pm 16.8 NE 7 10 1031.1 - 0.0 - Mostly clear 10 - - - -
21/08:00pm 17.0 NE 9 11 1030.7 - 0.0 - Mostly clear 10 - - - -
21/07:30pm 16.6 ENE 9 11 1030.5 - 0.0 - Mostly clear 10 - - - -
21/07:00pm 16.6 NE 9 13 1030.4 - 0.0 - Mostly clear 10 - - - -
21/06:30pm 16.7 ENE 10 14 1030.3 - 0.0 - Partly cloudy 10 - - - -

Other Formats:

Comma delimited format used in spreadsheet applications
http://www.bom.gov.au/fwo/IDN60701/IDN60701.94767.axf

JavaScript Object Notation format (JSON) in row-major order
http://www.bom.gov.au/fwo/IDN60701/IDN60701.94767.json